DAUL/LOO METAR and TAF weather

Enter ICAO airport designator
Station Type Date Time Source
DAUL METAR 2019/11/21 03:00 UTC NOAA

DAUL 210300Z 21012KT CAVOK 06/M01 Q1015


Station Type Date Time Source
DAUL Decoded METAR 2019/11/21 03:00 UTC NOAA

Laghouat, Algeria (DAUL) 33-46N 002-56E 765M
Nov 20, 2019 - 10:00 PM EST / 2019.11.21 0300 UTC
Wind: from the SSW (210 degrees) at 14 MPH (12 KT):0
Visibility: greater than 7 mile(s):0
Temperature: 42 F (6 C)
Dew Point: 30 F (-1 C)
Relative Humidity: 60%
Pressure (altimeter): 29.97 in. Hg (1015 hPa)
ob: DAUL 210300Z 21012KT CAVOK 06/M01 Q1015
cycle: 3

Station Type Date Time Source
DAUL TAF 2017/11/09 18:03 UTC NOAA

TAF DAUL 091700Z 0918/1009 02012KT 9999 SCT030 SCT100 PROB40
TEMPO 0918/0924 35020G30KT 4000 -TSRA FEW030CB

Example: see airport list